createdAt,value
2023-02-06T00:00:49.191Z,10.85
2023-02-06T00:03:15.647Z,9.00
2023-02-06T00:05:42.120Z,8.02
2023-02-06T00:08:08.678Z,12.40
2023-02-06T00:10:35.086Z,8.27
2023-02-06T00:13:01.530Z,11.48
2023-02-06T00:15:27.965Z,9.05
2023-02-06T00:17:54.328Z,13.93
2023-02-06T00:20:20.818Z,8.50
2023-02-06T00:22:47.238Z,11.55
2023-02-06T00:25:13.755Z,11.48
2023-02-06T00:27:40.147Z,9.60
2023-02-06T00:30:06.971Z,8.30
2023-02-06T00:32:35.327Z,11.35
2023-02-06T00:35:01.800Z,11.13
2023-02-06T00:37:28.157Z,11.95
2023-02-06T00:39:54.574Z,13.30
2023-02-06T00:42:21.200Z,11.98
2023-02-06T00:44:47.654Z,9.18
2023-02-06T00:47:14.059Z,8.07
2023-02-06T00:49:40.547Z,11.00
2023-02-06T00:52:06.934Z,11.90
2023-02-06T00:54:33.313Z,11.50
2023-02-06T00:56:59.787Z,6.60
2023-02-06T00:59:26.266Z,10.77
2023-02-06T01:01:52.682Z,9.45
2023-02-06T01:04:19.166Z,10.90
2023-02-06T01:06:45.583Z,10.70
2023-02-06T01:09:12.092Z,8.52
2023-02-06T01:11:38.484Z,11.60
2023-02-06T01:14:04.931Z,12.52
2023-02-06T01:16:31.618Z,8.57
2023-02-06T01:18:58.020Z,12.00
2023-02-06T01:21:25.376Z,8.20
2023-02-06T01:23:54.307Z,7.47
2023-02-06T01:26:24.405Z,8.05
2023-02-06T01:28:51.026Z,8.15
2023-02-06T01:31:26.515Z,10.20
2023-02-06T01:33:53.619Z,8.93
2023-02-06T01:36:20.751Z,9.40
2023-02-06T01:38:47.922Z,10.95
2023-02-06T01:41:15.803Z,7.97
2023-02-06T01:43:45.407Z,10.90
2023-02-06T01:46:11.899Z,9.63
2023-02-06T01:48:46.971Z,8.50
2023-02-06T01:51:18.299Z,10.30
2023-02-06T01:53:48.218Z,11.00
2023-02-06T01:56:19.468Z,8.10
2023-02-06T01:58:51.557Z,9.63
2023-02-06T02:01:19.437Z,10.65
2023-02-06T02:03:48.912Z,16.60
2023-02-06T02:06:18.863Z,8.15
2023-02-06T02:08:47.778Z,10.60
2023-02-06T02:11:18.439Z,9.40
2023-02-06T02:13:45.402Z,11.13
2023-02-06T02:16:39.595Z,9.10
2023-02-06T02:19:27.615Z,11.48
2023-02-06T02:22:25.680Z,9.68
2023-02-06T02:25:07.545Z,7.05
2023-02-06T02:27:41.659Z,10.43
2023-02-06T02:30:47.600Z,7.88
2023-02-06T02:33:38.876Z,9.13
2023-02-06T02:36:11.167Z,9.30
2023-02-06T02:38:49.086Z,13.10
2023-02-06T02:41:18.310Z,9.52
2023-02-06T02:43:49.692Z,9.82
2023-02-06T02:46:31.071Z,10.60
2023-02-06T02:49:04.215Z,10.85
2023-02-06T02:51:32.213Z,8.52
2023-02-06T02:53:58.925Z,12.40
2023-02-06T02:56:26.414Z,8.43
2023-02-06T02:59:05.031Z,9.95
2023-02-06T03:01:56.796Z,6.63
2023-02-06T03:04:31.084Z,9.07
2023-02-06T03:07:08.838Z,5.53
2023-02-06T03:09:56.651Z,8.65
2023-02-06T03:12:39.656Z,8.20
2023-02-06T03:15:31.476Z,9.57
2023-02-06T03:18:31.198Z,7.55
2023-02-06T03:21:00.371Z,8.05
2023-02-06T03:23:31.291Z,6.57
2023-02-06T03:26:02.748Z,9.93
2023-02-06T03:28:35.530Z,8.30
2023-02-06T03:31:06.305Z,6.95
2023-02-06T03:33:39.849Z,8.27
2023-02-06T03:36:08.452Z,8.38
2023-02-06T03:38:34.890Z,6.53
2023-02-06T03:41:01.893Z,6.50
2023-02-06T03:43:30.299Z,10.52
2023-02-06T03:46:02.229Z,7.35
2023-02-06T03:48:34.967Z,7.07
2023-02-06T03:51:08.008Z,7.20
2023-02-06T03:53:36.436Z,7.10
2023-02-06T03:56:09.001Z,7.65
2023-02-06T03:58:35.675Z,7.30
2023-02-06T04:01:03.992Z,9.18
2023-02-06T04:03:31.205Z,6.93
2023-02-06T04:05:57.643Z,6.68
2023-02-06T04:08:24.060Z,6.47
2023-02-06T04:10:50.491Z,6.78
2023-02-06T04:13:16.867Z,5.20
2023-02-06T04:15:43.331Z,6.63
2023-02-06T04:18:09.799Z,6.07
2023-02-06T04:20:40.730Z,7.68
2023-02-06T04:23:08.512Z,5.90
2023-02-06T04:25:35.995Z,6.35
2023-02-06T04:28:02.694Z,4.80
2023-02-06T04:30:29.263Z,6.78
2023-02-06T04:32:55.714Z,5.55
2023-02-06T04:35:22.197Z,6.13
2023-02-06T04:37:48.642Z,7.45
2023-02-06T04:40:15.156Z,5.28
2023-02-06T04:42:41.686Z,5.32
2023-02-06T04:45:08.704Z,5.57
2023-02-06T04:47:35.095Z,4.60
2023-02-06T04:50:01.584Z,5.78
2023-02-06T04:52:27.953Z,6.50
2023-02-06T04:54:54.306Z,4.82
2023-02-06T04:57:20.779Z,5.15
2023-02-06T04:59:47.143Z,4.40
2023-02-06T05:02:13.628Z,5.35
2023-02-06T05:04:40.071Z,4.85
2023-02-06T05:07:06.644Z,4.88
2023-02-06T05:09:33.088Z,3.75
2023-02-06T05:11:59.553Z,6.00
2023-02-06T05:14:25.994Z,3.80
2023-02-06T05:16:52.379Z,5.50
2023-02-06T05:19:18.791Z,4.38
2023-02-06T05:21:45.141Z,3.67
2023-02-06T05:24:11.538Z,4.90
2023-02-06T05:26:38.111Z,3.75
2023-02-06T05:29:04.584Z,5.53
2023-02-06T05:31:31.347Z,5.43
2023-02-06T05:33:57.854Z,10.82
2023-02-06T05:36:24.721Z,8.60
2023-02-06T05:38:51.309Z,4.93
2023-02-06T05:41:17.936Z,5.13
2023-02-06T05:43:44.466Z,5.28
2023-02-06T05:46:12.861Z,4.45
2023-02-06T05:48:39.967Z,4.03
2023-02-06T05:51:06.409Z,5.63
2023-02-06T05:53:33.045Z,5.90
2023-02-06T05:55:59.501Z,5.15
2023-02-06T05:58:26.046Z,8.32
2023-02-06T06:00:52.528Z,4.65
2023-02-06T06:03:19.133Z,5.28
2023-02-06T06:05:46.018Z,3.75
2023-02-06T06:08:12.420Z,3.85
2023-02-06T06:10:38.886Z,6.68
2023-02-06T06:13:05.308Z,5.00
2023-02-06T06:15:31.952Z,4.25
2023-02-06T06:17:58.333Z,6.30
2023-02-06T06:20:24.935Z,5.85
2023-02-06T06:22:51.685Z,4.93
2023-02-06T06:25:18.339Z,4.90
2023-02-06T06:27:45.007Z,3.75
2023-02-06T06:30:11.883Z,4.10
2023-02-06T06:32:38.258Z,5.30
2023-02-06T06:35:04.916Z,4.80
2023-02-06T06:37:31.293Z,4.93
2023-02-06T06:39:57.855Z,5.03
2023-02-06T06:42:24.287Z,5.40
2023-02-06T06:44:50.836Z,5.50
2023-02-06T06:47:17.415Z,3.70
2023-02-06T06:49:43.971Z,3.58
2023-02-06T06:52:22.998Z,5.10
2023-02-06T06:54:52.619Z,5.72
2023-02-06T06:57:19.465Z,5.40
2023-02-06T06:59:46.200Z,5.30
2023-02-06T07:02:13.522Z,2.95
2023-02-06T07:04:40.248Z,4.55
2023-02-06T07:07:07.140Z,3.88
2023-02-06T07:09:33.690Z,5.18
2023-02-06T07:12:00.744Z,4.20
2023-02-06T07:14:27.222Z,2.90
2023-02-06T07:16:53.618Z,4.57
2023-02-06T07:19:21.316Z,4.13
2023-02-06T07:21:47.710Z,4.40
2023-02-06T07:24:14.167Z,3.72
2023-02-06T07:26:41.502Z,7.03
2023-02-06T07:29:08.262Z,3.00
2023-02-06T07:31:34.745Z,4.82
2023-02-06T07:34:02.255Z,9.20
2023-02-06T07:36:28.761Z,3.88
2023-02-06T07:38:55.150Z,3.33
2023-02-06T07:41:21.527Z,3.75
2023-02-06T07:43:48.115Z,7.95
2023-02-06T07:46:14.608Z,4.35
2023-02-06T07:48:41.064Z,3.70
2023-02-06T07:51:08.803Z,4.35
2023-02-06T07:53:36.178Z,5.18
2023-02-06T07:56:08.796Z,9.82
2023-02-06T07:58:35.152Z,4.72
2023-02-06T08:01:05.819Z,4.22
2023-02-06T08:03:33.270Z,2.97
2023-02-06T08:05:59.739Z,4.07
2023-02-06T08:08:26.256Z,5.88
2023-02-06T08:10:52.719Z,4.43
2023-02-06T08:13:19.086Z,5.40
2023-02-06T08:15:45.494Z,4.90
2023-02-06T08:18:11.893Z,5.45
2023-02-06T08:20:38.380Z,4.18
2023-02-06T08:23:04.854Z,6.78
2023-02-06T08:25:31.264Z,3.28
2023-02-06T08:27:57.716Z,3.25
2023-02-06T08:30:24.506Z,6.93
2023-02-06T08:32:51.018Z,5.75
2023-02-06T08:35:17.859Z,3.10
2023-02-06T08:37:44.266Z,5.28
2023-02-06T08:40:11.163Z,4.05
2023-02-06T08:42:37.682Z,5.47
2023-02-06T08:45:04.479Z,4.03
2023-02-06T08:47:31.145Z,3.40
2023-02-06T08:49:57.559Z,5.07
2023-02-06T08:52:24.117Z,3.83
2023-02-06T08:54:52.051Z,4.25
2023-02-06T08:57:18.476Z,4.70
2023-02-06T08:59:44.928Z,3.78
2023-02-06T09:02:11.605Z,3.20
2023-02-06T09:04:39.032Z,5.03
2023-02-06T09:07:05.492Z,4.70
2023-02-06T09:09:31.865Z,5.15
2023-02-06T09:12:03.207Z,4.78
2023-02-06T09:14:30.000Z,3.65
2023-02-06T09:16:59.380Z,4.47
2023-02-06T09:19:26.522Z,3.95
2023-02-06T09:21:53.413Z,5.05
2023-02-06T09:24:20.169Z,4.20
2023-02-06T09:26:59.054Z,4.00
2023-02-06T09:29:28.877Z,4.13
2023-02-06T09:31:57.111Z,4.70
2023-02-06T09:34:25.675Z,5.00
2023-02-06T09:36:54.377Z,3.80
2023-02-06T09:39:20.837Z,4.93
2023-02-06T09:41:56.691Z,7.28
2023-02-06T09:44:33.183Z,6.47
2023-02-06T09:49:43.816Z,5.05
2023-02-06T09:52:32.152Z,4.70
2023-02-06T09:55:20.529Z,6.47
2023-02-06T09:58:03.567Z,2.53
2023-02-06T10:00:41.876Z,4.03
2023-02-06T10:03:43.637Z,4.03
2023-02-06T10:06:16.431Z,4.00
2023-02-06T10:09:01.528Z,4.53
2023-02-06T10:11:58.344Z,4.88
2023-02-06T10:14:36.798Z,6.30
2023-02-06T10:17:12.417Z,4.03
2023-02-06T10:20:10.768Z,3.93
2023-02-06T10:22:55.707Z,5.97
2023-02-06T10:25:30.896Z,5.97
2023-02-06T10:28:01.581Z,3.63
2023-02-06T10:31:00.152Z,4.85
2023-02-06T10:33:35.669Z,4.63
2023-02-06T10:36:45.190Z,4.65
2023-02-06T10:39:15.464Z,6.15
2023-02-06T10:42:34.559Z,5.18
2023-02-06T10:45:34.664Z,5.45
2023-02-06T10:48:22.745Z,5.10
2023-02-06T10:51:15.152Z,4.82
2023-02-06T10:53:54.272Z,7.25
2023-02-06T10:56:26.513Z,6.70
2023-02-06T10:59:29.121Z,7.95
2023-02-06T11:02:18.488Z,7.70
2023-02-06T11:05:14.632Z,7.47
2023-02-06T11:07:43.925Z,6.93
2023-02-06T11:10:16.586Z,6.45
2023-02-06T11:13:01.543Z,8.80
2023-02-06T11:15:40.110Z,7.03
2023-02-06T11:18:11.198Z,7.28
2023-02-06T11:20:41.509Z,8.10
2023-02-06T11:23:23.546Z,6.43
2023-02-06T11:26:15.339Z,7.72
2023-02-06T11:28:53.835Z,7.40
2023-02-06T11:31:38.530Z,9.02
2023-02-06T11:34:05.413Z,8.10
2023-02-06T11:36:36.481Z,7.63
2023-02-06T11:39:20.815Z,8.15
2023-02-06T11:42:05.215Z,8.40
2023-02-06T11:44:40.511Z,7.05
2023-02-06T11:47:37.187Z,9.30
2023-02-06T11:50:13.379Z,9.15
2023-02-06T11:52:46.888Z,8.23
2023-02-06T11:55:28.657Z,9.52
2023-02-06T11:58:22.443Z,9.38
2023-02-06T12:00:51.947Z,9.23
2023-02-06T12:03:33.642Z,8.18
2023-02-06T12:06:13.032Z,7.65
2023-02-06T12:08:45.773Z,7.53
2023-02-06T12:11:28.169Z,8.25
2023-02-06T12:14:01.227Z,8.82
2023-02-06T12:16:27.905Z,8.45
2023-02-06T12:18:58.911Z,8.82
2023-02-06T12:21:36.649Z,9.20
2023-02-06T12:24:20.941Z,7.10
2023-02-06T12:26:48.837Z,10.35
2023-02-06T12:29:20.716Z,7.88
2023-02-06T12:31:59.246Z,11.73
2023-02-06T12:34:40.316Z,8.48
2023-02-06T12:37:21.213Z,9.13
2023-02-06T12:39:48.936Z,10.35
2023-02-06T12:42:33.493Z,9.07
2023-02-06T12:45:13.248Z,9.90
2023-02-06T12:47:53.373Z,10.18
2023-02-06T12:50:28.419Z,10.05
2023-02-06T12:53:17.487Z,11.88
2023-02-06T12:56:00.770Z,9.82
2023-02-06T12:58:40.297Z,7.57
2023-02-06T13:01:30.011Z,9.82
2023-02-06T13:04:02.780Z,7.55
2023-02-06T13:06:42.478Z,12.25
2023-02-06T13:09:34.658Z,8.38
2023-02-06T13:12:29.145Z,9.77
2023-02-06T13:14:59.781Z,9.98
2023-02-06T13:17:38.831Z,9.20
2023-02-06T13:20:07.521Z,10.35
2023-02-06T13:22:33.908Z,9.35
2023-02-06T13:25:02.208Z,10.27
2023-02-06T13:27:39.216Z,10.52
2023-02-06T13:30:38.058Z,9.45
2023-02-06T13:33:20.905Z,8.23
2023-02-06T13:35:59.007Z,9.82
2023-02-06T13:38:34.213Z,9.02
2023-02-06T13:41:15.803Z,9.65
2023-02-06T13:43:49.383Z,7.70
2023-02-06T13:46:21.254Z,8.20
2023-02-06T13:49:09.230Z,9.80
2023-02-06T13:52:14.284Z,9.75
2023-02-06T13:55:10.796Z,10.15
2023-02-06T13:58:01.933Z,9.00
2023-02-06T14:00:31.857Z,9.60
2023-02-06T14:03:23.669Z,11.35
2023-02-06T14:06:16.954Z,10.50
2023-02-06T14:09:01.849Z,7.65
2023-02-06T14:12:17.369Z,9.48
2023-02-06T14:15:14.151Z,8.45
2023-02-06T14:18:02.395Z,9.75
2023-02-06T14:20:42.441Z,9.77
2023-02-06T14:23:36.880Z,9.23
2023-02-06T14:26:11.673Z,9.18
2023-02-06T14:28:46.293Z,9.20
2023-02-06T14:31:15.583Z,9.65
2023-02-06T14:33:47.366Z,8.40
2023-02-06T14:36:32.114Z,7.05
2023-02-06T14:39:36.371Z,8.93
2023-02-06T14:42:20.547Z,10.38
2023-02-06T14:44:54.864Z,9.50
2023-02-06T14:47:26.938Z,13.13
2023-02-06T14:49:56.235Z,9.43
2023-02-06T14:52:25.592Z,10.68
2023-02-06T14:54:52.316Z,11.93
2023-02-06T14:57:30.116Z,11.07
2023-02-06T15:00:01.140Z,9.98
2023-02-06T15:02:34.001Z,8.18
2023-02-06T15:05:02.178Z,11.00
2023-02-06T15:07:32.302Z,12.13
2023-02-06T15:10:00.634Z,9.48
2023-02-06T15:12:29.172Z,10.63
2023-02-06T15:15:20.354Z,11.02
2023-02-06T15:18:00.175Z,9.30
2023-02-06T15:20:36.316Z,8.48
2023-02-06T15:25:57.034Z,8.52
2023-02-06T15:28:28.276Z,8.05
2023-02-06T15:30:56.421Z,8.38
2023-02-06T15:33:26.976Z,10.02
2023-02-06T15:35:55.618Z,11.98
2023-02-06T15:38:24.351Z,7.80
2023-02-06T15:40:58.102Z,16.13
2023-02-06T15:43:26.328Z,12.45
2023-02-06T15:45:58.962Z,8.98
2023-02-06T15:48:48.845Z,10.60
2023-02-06T15:51:21.435Z,10.45
2023-02-06T15:53:50.534Z,11.75
2023-02-06T15:56:28.442Z,13.02
2023-02-06T15:58:58.729Z,10.00
2023-02-06T16:01:26.731Z,11.82
2023-02-06T16:03:59.248Z,9.50
2023-02-06T16:06:25.804Z,10.10
2023-02-06T16:08:56.264Z,9.38
2023-02-06T16:11:46.192Z,13.68
2023-02-06T16:14:37.867Z,11.73
2023-02-06T16:17:20.268Z,8.77
2023-02-06T16:20:02.573Z,10.43
2023-02-06T16:22:38.226Z,10.52
2023-02-06T16:25:19.722Z,8.83
2023-02-06T16:27:46.676Z,10.75
2023-02-06T16:30:36.389Z,8.98
2023-02-06T16:33:21.011Z,10.52
2023-02-06T16:35:49.136Z,10.48
2023-02-06T16:38:15.553Z,8.18
2023-02-06T16:40:41.973Z,10.48
2023-02-06T16:43:12.178Z,9.10
2023-02-06T16:45:38.579Z,11.45
2023-02-06T16:48:11.618Z,8.60
2023-02-06T16:50:40.337Z,13.82
2023-02-06T16:53:13.848Z,14.52
2023-02-06T16:55:42.500Z,10.70
2023-02-06T16:58:14.357Z,17.65
2023-02-06T17:00:41.271Z,12.82
2023-02-06T17:03:07.736Z,10.70
2023-02-06T17:05:37.137Z,9.07
2023-02-06T17:08:15.759Z,11.32
2023-02-06T17:10:42.436Z,10.73
2023-02-06T17:13:14.105Z,10.30
2023-02-06T17:15:40.770Z,9.90
2023-02-06T17:18:07.197Z,10.80
2023-02-06T17:20:37.039Z,9.40
2023-02-06T17:23:04.780Z,11.77
2023-02-06T17:25:31.500Z,7.72
2023-02-06T17:27:58.402Z,14.20
2023-02-06T17:30:26.088Z,10.30
2023-02-06T17:32:52.607Z,9.90
2023-02-06T17:35:19.613Z,11.55
2023-02-06T17:37:46.608Z,10.23
2023-02-06T17:40:19.601Z,9.38
2023-02-06T17:42:46.053Z,9.15
2023-02-06T17:45:12.510Z,9.43
2023-02-06T17:47:38.925Z,11.40
2023-02-06T17:50:05.686Z,12.95
2023-02-06T17:52:32.093Z,13.57
2023-02-06T17:54:58.532Z,14.90
2023-02-06T17:57:25.004Z,14.75
2023-02-06T17:59:54.523Z,15.77
2023-02-06T18:02:20.937Z,13.77
2023-02-06T18:04:51.318Z,13.70
2023-02-06T18:07:17.720Z,13.10
2023-02-06T18:09:44.202Z,12.63
2023-02-06T18:12:10.773Z,15.45
2023-02-06T18:14:37.195Z,11.10
2023-02-06T18:17:03.604Z,13.00
2023-02-06T18:19:30.151Z,15.00
2023-02-06T18:21:56.644Z,13.10
2023-02-06T18:24:23.078Z,15.88
2023-02-06T18:26:49.507Z,16.92
2023-02-06T18:29:16.115Z,12.18
2023-02-06T18:31:42.659Z,12.48
2023-02-06T18:34:10.046Z,12.90
2023-02-06T18:36:37.441Z,11.73
2023-02-06T18:39:05.652Z,14.15
2023-02-06T18:41:50.692Z,10.60
2023-02-06T18:44:17.121Z,11.65
2023-02-06T18:46:43.738Z,12.13
2023-02-06T18:49:10.222Z,10.82
2023-02-06T18:51:36.598Z,12.07
2023-02-06T18:54:03.378Z,12.60
2023-02-06T18:56:30.647Z,12.88
2023-02-06T18:58:57.038Z,11.82
2023-02-06T19:01:25.337Z,14.20
2023-02-06T19:03:53.490Z,11.73
2023-02-06T19:06:25.124Z,12.05
2023-02-06T19:08:51.620Z,12.98
2023-02-06T19:11:18.181Z,10.55
2023-02-06T19:13:44.711Z,14.93
2023-02-06T19:16:17.233Z,11.98
2023-02-06T19:18:46.429Z,12.05
2023-02-06T19:21:17.214Z,10.10
2023-02-06T19:23:45.274Z,15.00
2023-02-06T19:26:14.953Z,14.35
2023-02-06T19:28:42.542Z,13.90
2023-02-06T19:31:10.548Z,13.10
2023-02-06T19:33:39.160Z,17.05
2023-02-06T19:36:10.280Z,14.88
2023-02-06T19:38:37.210Z,14.60
2023-02-06T19:41:13.114Z,11.25
2023-02-06T19:43:40.571Z,10.90
2023-02-06T19:46:13.574Z,16.27
2023-02-06T19:48:43.124Z,14.00
2023-02-06T19:51:12.759Z,16.73
2023-02-06T19:53:45.233Z,22.70
2023-02-06T19:56:39.908Z,9.98
2023-02-06T19:59:17.832Z,13.50
2023-02-06T20:01:48.385Z,12.80
2023-02-06T20:04:14.872Z,12.80
2023-02-06T20:06:43.836Z,9.50
2023-02-06T20:09:12.456Z,18.08
2023-02-06T20:11:39.377Z,13.52
2023-02-06T20:14:06.743Z,14.27
2023-02-06T20:16:36.632Z,13.18
2023-02-06T20:19:08.767Z,12.40
2023-02-06T20:21:39.307Z,12.60
2023-02-06T20:24:08.318Z,14.35
2023-02-06T20:26:37.864Z,12.27
2023-02-06T20:29:06.962Z,9.25
2023-02-06T20:31:34.768Z,10.68
2023-02-06T20:34:01.650Z,12.23
2023-02-06T20:36:28.993Z,11.95
2023-02-06T20:38:58.619Z,9.10
2023-02-06T20:41:31.404Z,11.00
2023-02-06T20:44:00.415Z,12.05
2023-02-06T20:46:29.710Z,12.85
2023-02-06T20:48:58.228Z,8.95
2023-02-06T20:51:25.183Z,8.82
2023-02-06T20:53:51.893Z,7.35
2023-02-06T20:56:19.323Z,9.63
2023-02-06T20:58:46.238Z,10.63
2023-02-06T21:01:22.248Z,10.00
2023-02-06T21:03:50.081Z,11.57
2023-02-06T21:06:16.845Z,11.55
2023-02-06T21:08:45.988Z,8.57
2023-02-06T21:11:12.702Z,10.50
2023-02-06T21:13:42.499Z,8.65
2023-02-06T21:16:13.456Z,9.52
2023-02-06T21:18:42.411Z,8.93
2023-02-06T21:21:13.092Z,9.40
2023-02-06T21:23:41.207Z,9.18
2023-02-06T21:26:09.682Z,10.45
2023-02-06T21:28:36.900Z,8.38
2023-02-06T21:31:14.046Z,10.70
2023-02-06T21:33:40.583Z,11.07
2023-02-06T21:36:07.851Z,7.72
2023-02-06T21:38:38.422Z,8.43
2023-02-06T21:41:14.167Z,11.85
2023-02-06T21:43:40.713Z,11.60
2023-02-06T21:46:07.288Z,8.32
2023-02-06T21:48:34.905Z,13.10
2023-02-06T21:51:09.637Z,7.78
2023-02-06T21:53:36.059Z,9.88
2023-02-06T21:56:05.741Z,9.23
2023-02-06T21:58:32.239Z,10.63
2023-02-06T22:00:58.808Z,10.93
2023-02-06T22:03:25.589Z,7.80
2023-02-06T22:05:52.042Z,16.15
2023-02-06T22:08:18.537Z,9.93
2023-02-06T22:10:44.946Z,6.68
2023-02-06T22:13:11.303Z,9.20
2023-02-06T22:15:38.051Z,9.88
2023-02-06T22:18:05.028Z,9.25
2023-02-06T22:20:31.393Z,7.72
2023-02-06T22:22:57.802Z,9.35
2023-02-06T22:25:24.276Z,8.40
2023-02-06T22:27:50.758Z,8.50
2023-02-06T22:30:17.333Z,10.95
2023-02-06T22:32:43.781Z,10.60
2023-02-06T22:35:10.211Z,10.73
2023-02-06T22:37:36.715Z,9.60
2023-02-06T22:40:03.472Z,10.25
2023-02-06T22:42:29.928Z,10.30
2023-02-06T22:44:59.177Z,9.38
2023-02-06T22:47:25.626Z,12.02
2023-02-06T22:49:52.691Z,9.45
2023-02-06T22:52:38.065Z,11.82
2023-02-06T22:55:05.784Z,9.93
2023-02-06T22:57:35.111Z,12.38
2023-02-06T23:00:01.621Z,12.27
2023-02-06T23:02:28.059Z,12.63
2023-02-06T23:04:54.500Z,11.77
2023-02-06T23:07:20.943Z,11.15
2023-02-06T23:09:47.355Z,10.25
2023-02-06T23:12:13.836Z,10.43
2023-02-06T23:14:40.304Z,8.93
2023-02-06T23:17:06.670Z,9.23
2023-02-06T23:19:33.203Z,9.88
2023-02-06T23:21:59.657Z,11.93
2023-02-06T23:24:26.128Z,9.18
2023-02-06T23:26:54.256Z,10.85
2023-02-06T23:29:22.227Z,10.73
2023-02-06T23:31:48.955Z,9.32
2023-02-06T23:34:16.552Z,11.68
2023-02-06T23:36:43.439Z,9.52
2023-02-06T23:39:11.674Z,9.35
2023-02-06T23:41:38.110Z,9.18
2023-02-06T23:44:06.918Z,9.30
2023-02-06T23:46:35.100Z,8.75
2023-02-06T23:49:01.971Z,9.10
2023-02-06T23:51:28.763Z,8.60
2023-02-06T23:53:55.225Z,9.20
2023-02-06T23:56:26.096Z,9.85
2023-02-06T23:58:54.152Z,10.57
